sensor_id;sensor_type;location;lat;lon;timestamp;pressure;altitude;pressure_sealevel;temperature;humidity
73594;BME280;64760;53.404;23.498;2023-06-10T00:01:50;99768.34;;;16.42;53.64
73594;BME280;64760;53.404;23.498;2023-06-10T00:04:17;99760.47;;;16.41;54.11
73594;BME280;64760;53.404;23.498;2023-06-10T00:06:44;99757.66;;;16.36;54.38
73594;BME280;64760;53.404;23.498;2023-06-10T00:09:10;99770.56;;;16.22;54.94
73594;BME280;64760;53.404;23.498;2023-06-10T00:11:37;99766.44;;;16.20;55.06
73594;BME280;64760;53.404;23.498;2023-06-10T00:14:03;99767.00;;;16.10;55.42
73594;BME280;64760;53.404;23.498;2023-06-10T00:16:30;99761.44;;;16.05;55.03
73594;BME280;64760;53.404;23.498;2023-06-10T00:19:01;99756.19;;;16.10;54.50
73594;BME280;64760;53.404;23.498;2023-06-10T00:21:29;99762.88;;;16.08;54.17
73594;BME280;64760;53.404;23.498;2023-06-10T00:23:56;99762.06;;;16.07;54.24
73594;BME280;64760;53.404;23.498;2023-06-10T00:26:23;99757.13;;;16.04;53.73
73594;BME280;64760;53.404;23.498;2023-06-10T00:28:49;99761.78;;;15.97;53.64
73594;BME280;64760;53.404;23.498;2023-06-10T00:31:16;99752.94;;;15.90;54.04
73594;BME280;64760;53.404;23.498;2023-06-10T00:33:43;99751.91;;;15.91;53.57
73594;BME280;64760;53.404;23.498;2023-06-10T00:36:11;99754.94;;;15.83;53.37
73594;BME280;64760;53.404;23.498;2023-06-10T00:38:38;99751.25;;;15.77;53.92
73594;BME280;64760;53.404;23.498;2023-06-10T00:41:04;99755.72;;;15.72;53.56
73594;BME280;64760;53.404;23.498;2023-06-10T00:43:30;99761.13;;;15.72;54.01
73594;BME280;64760;53.404;23.498;2023-06-10T00:45:56;99764.25;;;15.69;53.35
73594;BME280;64760;53.404;23.498;2023-06-10T00:48:23;99773.44;;;15.68;53.65
73594;BME280;64760;53.404;23.498;2023-06-10T00:50:50;99768.94;;;15.62;53.96
73594;BME280;64760;53.404;23.498;2023-06-10T00:53:17;99773.81;;;15.53;54.09
73594;BME280;64760;53.404;23.498;2023-06-10T00:55:43;99776.16;;;15.49;54.15
73594;BME280;64760;53.404;23.498;2023-06-10T00:58:10;99781.25;;;15.39;54.29
73594;BME280;64760;53.404;23.498;2023-06-10T01:00:37;99781.78;;;15.48;54.37
73594;BME280;64760;53.404;23.498;2023-06-10T01:03:03;99770.97;;;15.30;54.53
73594;BME280;64760;53.404;23.498;2023-06-10T01:05:37;99774.50;;;15.30;54.57
73594;BME280;64760;53.404;23.498;2023-06-10T01:11:03;99780.66;;;15.19;54.94
73594;BME280;64760;53.404;23.498;2023-06-10T01:13:32;99777.91;;;15.08;54.73
73594;BME280;64760;53.404;23.498;2023-06-10T01:15:59;99777.53;;;15.04;54.92
73594;BME280;64760;53.404;23.498;2023-06-10T01:18:31;99781.84;;;15.05;54.69
73594;BME280;64760;53.404;23.498;2023-06-10T01:20:58;99776.44;;;15.05;54.37
73594;BME280;64760;53.404;23.498;2023-06-10T01:23:25;99781.63;;;15.07;54.62
73594;BME280;64760;53.404;23.498;2023-06-10T01:26:03;99785.31;;;15.12;54.31
73594;BME280;64760;53.404;23.498;2023-06-10T01:29:07;99785.38;;;15.05;53.96
73594;BME280;64760;53.404;23.498;2023-06-10T01:31:48;99788.75;;;15.01;54.26
73594;BME280;64760;53.404;23.498;2023-06-10T01:34:19;99782.47;;;15.07;53.73
73594;BME280;64760;53.404;23.498;2023-06-10T01:36:48;99785.00;;;15.02;53.98
73594;BME280;64760;53.404;23.498;2023-06-10T01:39:17;99789.50;;;14.90;54.53
73594;BME280;64760;53.404;23.498;2023-06-10T01:41:45;99788.81;;;14.94;54.42
73594;BME280;64760;53.404;23.498;2023-06-10T01:44:17;99784.72;;;14.92;54.44
73594;BME280;64760;53.404;23.498;2023-06-10T01:46:44;99788.22;;;14.92;53.77
73594;BME280;64760;53.404;23.498;2023-06-10T01:49:11;99788.91;;;14.88;54.42
73594;BME280;64760;53.404;23.498;2023-06-10T01:51:37;99791.44;;;14.83;53.96
73594;BME280;64760;53.404;23.498;2023-06-10T01:54:03;99782.44;;;14.89;53.99
73594;BME280;64760;53.404;23.498;2023-06-10T01:56:30;99782.13;;;14.79;54.33
73594;BME280;64760;53.404;23.498;2023-06-10T01:58:57;99790.50;;;14.71;54.21
73594;BME280;64760;53.404;23.498;2023-06-10T02:01:28;99791.13;;;14.73;54.21
73594;BME280;64760;53.404;23.498;2023-06-10T02:03:55;99789.41;;;14.78;53.81
73594;BME280;64760;53.404;23.498;2023-06-10T02:06:22;99784.72;;;14.67;54.16
73594;BME280;64760;53.404;23.498;2023-06-10T02:08:48;99792.63;;;14.69;54.16
73594;BME280;64760;53.404;23.498;2023-06-10T02:11:14;99792.63;;;14.69;54.17
73594;BME280;64760;53.404;23.498;2023-06-10T02:13:41;99792.38;;;14.70;53.96
73594;BME280;64760;53.404;23.498;2023-06-10T02:16:07;99796.53;;;14.73;53.64
73594;BME280;64760;53.404;23.498;2023-06-10T02:18:33;99796.53;;;14.73;53.98
73594;BME280;64760;53.404;23.498;2023-06-10T02:20:59;99794.88;;;14.72;54.14
73594;BME280;64760;53.404;23.498;2023-06-10T02:23:26;99786.97;;;14.70;53.85
73594;BME280;64760;53.404;23.498;2023-06-10T02:25:52;99790.34;;;14.66;54.11
73594;BME280;64760;53.404;23.498;2023-06-10T02:28:19;99804.50;;;14.61;54.26
73594;BME280;64760;53.404;23.498;2023-06-10T02:30:45;99801.59;;;14.63;54.18
73594;BME280;64760;53.404;23.498;2023-06-10T02:33:13;99790.34;;;14.66;54.17
73594;BME280;64760;53.404;23.498;2023-06-10T02:35:40;99795.31;;;14.69;54.01
73594;BME280;64760;53.404;23.498;2023-06-10T02:38:07;99802.50;;;14.75;53.94
73594;BME280;64760;53.404;23.498;2023-06-10T02:40:34;99797.56;;;14.72;54.24
73594;BME280;64760;53.404;23.498;2023-06-10T02:43:01;99804.63;;;14.73;53.77
73594;BME280;64760;53.404;23.498;2023-06-10T02:45:27;99807.31;;;14.73;53.84
73594;BME280;64760;53.404;23.498;2023-06-10T02:47:55;99807.47;;;14.78;53.42
73594;BME280;64760;53.404;23.498;2023-06-10T02:50:21;99812.94;;;14.89;52.83
73594;BME280;64760;53.404;23.498;2023-06-10T02:53:10;99805.84;;;14.77;52.98
73594;BME280;64760;53.404;23.498;2023-06-10T02:55:39;99816.84;;;14.75;53.10
73594;BME280;64760;53.404;23.498;2023-06-10T02:58:10;99821.84;;;14.72;53.16
73594;BME280;64760;53.404;23.498;2023-06-10T03:00:36;99820.19;;;14.71;53.23
73594;BME280;64760;53.404;23.498;2023-06-10T03:03:03;99831.81;;;14.71;53.47
73594;BME280;64760;53.404;23.498;2023-06-10T03:05:38;99831.44;;;14.68;53.44
73594;BME280;64760;53.404;23.498;2023-06-10T03:08:06;99823.22;;;14.81;52.94
73594;BME280;64760;53.404;23.498;2023-06-10T03:10:34;99831.31;;;14.81;52.80
73594;BME280;64760;53.404;23.498;2023-06-10T03:13:02;99823.06;;;14.76;52.88
73594;BME280;64760;53.404;23.498;2023-06-10T03:15:29;99820.56;;;14.74;53.40
73594;BME280;64760;53.404;23.498;2023-06-10T03:18:00;99829.50;;;14.75;53.07
73594;BME280;64760;53.404;23.498;2023-06-10T03:20:27;99831.81;;;14.71;53.16
73594;BME280;64760;53.404;23.498;2023-06-10T03:22:54;99832.41;;;14.73;52.90
73594;BME280;64760;53.404;23.498;2023-06-10T03:25:20;99837.59;;;14.75;52.90
73594;BME280;64760;53.404;23.498;2023-06-10T03:27:50;99836.81;;;14.92;52.63
73594;BME280;64760;53.404;23.498;2023-06-10T03:30:17;99838.13;;;15.08;52.10
73594;BME280;64760;53.404;23.498;2023-06-10T03:32:46;99843.59;;;15.20;51.27
73594;BME280;64760;53.404;23.498;2023-06-10T03:35:15;99842.31;;;15.22;51.08
73594;BME280;64760;53.404;23.498;2023-06-10T03:37:42;99847.63;;;15.29;50.93
73594;BME280;64760;53.404;23.498;2023-06-10T03:40:08;99843.00;;;15.18;51.51
73594;BME280;64760;53.404;23.498;2023-06-10T03:42:37;99853.75;;;15.24;51.26
73594;BME280;64760;53.404;23.498;2023-06-10T03:45:03;99852.00;;;15.30;51.18
73594;BME280;64760;53.404;23.498;2023-06-10T03:47:37;99853.19;;;15.34;51.26
73594;BME280;64760;53.404;23.498;2023-06-10T03:50:07;99854.03;;;15.34;50.50
73594;BME280;64760;53.404;23.498;2023-06-10T03:52:38;99843.84;;;15.36;50.65
73594;BME280;64760;53.404;23.498;2023-06-10T03:55:05;99853.75;;;15.42;50.41
73594;BME280;64760;53.404;23.498;2023-06-10T03:57:32;99852.53;;;15.38;50.74
73594;BME280;64760;53.404;23.498;2023-06-10T03:59:58;99852.44;;;15.45;51.03
73594;BME280;64760;53.404;23.498;2023-06-10T04:02:25;99845.97;;;15.53;50.29
73594;BME280;64760;53.404;23.498;2023-06-10T04:04:51;99849.19;;;15.61;50.17
73594;BME280;64760;53.404;23.498;2023-06-10T04:07:17;99847.56;;;15.60;50.27
73594;BME280;64760;53.404;23.498;2023-06-10T04:09:46;99855.72;;;15.72;50.17
73594;BME280;64760;53.404;23.498;2023-06-10T04:12:14;99842.78;;;15.74;50.14
73594;BME280;64760;53.404;23.498;2023-06-10T04:14:40;99844.19;;;15.94;49.50
73594;BME280;64760;53.404;23.498;2023-06-10T04:17:09;99844.88;;;15.90;49.47
73594;BME280;64760;53.404;23.498;2023-06-10T04:19:37;99851.63;;;15.99;49.30
73594;BME280;64760;53.404;23.498;2023-06-10T04:22:03;99846.84;;;16.13;48.80
73594;BME280;64760;53.404;23.498;2023-06-10T04:24:31;99848.53;;;16.25;48.29
73594;BME280;64760;53.404;23.498;2023-06-10T04:26:58;99849.53;;;16.13;49.05
73594;BME280;64760;53.404;23.498;2023-06-10T04:29:24;99850.25;;;16.08;48.97
73594;BME280;64760;53.404;23.498;2023-06-10T04:31:52;99855.09;;;16.18;48.27
73594;BME280;64760;53.404;23.498;2023-06-10T04:34:19;99853.72;;;16.27;48.23
73594;BME280;64760;53.404;23.498;2023-06-10T04:36:45;99847.28;;;16.39;48.36
73594;BME280;64760;53.404;23.498;2023-06-10T04:39:12;99849.50;;;16.31;47.94
73594;BME280;64760;53.404;23.498;2023-06-10T04:41:39;99852.22;;;16.42;47.82
73594;BME280;64760;53.404;23.498;2023-06-10T04:44:06;99851.63;;;16.40;47.95
73594;BME280;64760;53.404;23.498;2023-06-10T04:46:33;99860.03;;;16.51;47.71
73594;BME280;64760;53.404;23.498;2023-06-10T04:48:59;99859.75;;;16.52;48.12
73594;BME280;64760;53.404;23.498;2023-06-10T04:51:25;99857.53;;;16.49;47.55
73594;BME280;64760;53.404;23.498;2023-06-10T04:53:52;99850.56;;;16.60;47.22
73594;BME280;64760;53.404;23.498;2023-06-10T04:56:20;99861.41;;;16.83;47.71
73594;BME280;64760;53.404;23.498;2023-06-10T04:58:46;99859.38;;;16.67;47.53
73594;BME280;64760;53.404;23.498;2023-06-10T05:01:12;99854.78;;;16.67;47.80
73594;BME280;64760;53.404;23.498;2023-06-10T05:03:39;99864.22;;;16.88;47.05
73594;BME280;64760;53.404;23.498;2023-06-10T05:06:06;99857.53;;;17.14;46.94
73594;BME280;64760;53.404;23.498;2023-06-10T05:08:32;99862.13;;;17.13;46.28
73594;BME280;64760;53.404;23.498;2023-06-10T05:10:59;99860.34;;;17.19;46.29
73594;BME280;64760;53.404;23.498;2023-06-10T05:13:25;99864.13;;;17.06;46.16
73594;BME280;64760;53.404;23.498;2023-06-10T05:15:52;99863.50;;;17.16;46.19
73594;BME280;64760;53.404;23.498;2023-06-10T05:18:18;99864.81;;;17.13;45.69
73594;BME280;64760;53.404;23.498;2023-06-10T05:20:47;99864.94;;;17.30;45.71
73594;BME280;64760;53.404;23.498;2023-06-10T05:23:16;99861.16;;;17.31;45.46
73594;BME280;64760;53.404;23.498;2023-06-10T05:25:42;99866.81;;;17.41;45.75
73594;BME280;64760;53.404;23.498;2023-06-10T05:28:09;99877.53;;;17.36;45.43
73594;BME280;64760;53.404;23.498;2023-06-10T05:30:36;99875.19;;;17.40;45.79
73594;BME280;64760;53.404;23.498;2023-06-10T05:33:03;99871.06;;;17.25;46.02
73594;BME280;64760;53.404;23.498;2023-06-10T05:35:30;99866.28;;;17.56;45.25
73594;BME280;64760;53.404;23.498;2023-06-10T05:37:57;99866.94;;;17.58;45.28
73594;BME280;64760;53.404;23.498;2023-06-10T05:40:23;99869.84;;;17.56;45.37
73594;BME280;64760;53.404;23.498;2023-06-10T05:42:50;99864.06;;;17.53;45.39
73594;BME280;64760;53.404;23.498;2023-06-10T05:45:16;99869.00;;;17.56;45.50
73594;BME280;64760;53.404;23.498;2023-06-10T05:47:42;99862.63;;;17.85;45.27
73594;BME280;64760;53.404;23.498;2023-06-10T05:50:09;99868.81;;;17.97;44.81
73594;BME280;64760;53.404;23.498;2023-06-10T05:52:36;99864.19;;;17.69;45.09
73594;BME280;64760;53.404;23.498;2023-06-10T05:55:03;99865.44;;;17.90;44.89
73594;BME280;64760;53.404;23.498;2023-06-10T05:57:29;99870.22;;;18.00;45.32
73594;BME280;64760;53.404;23.498;2023-06-10T05:59:56;99869.44;;;17.99;44.79
73594;BME280;64760;53.404;23.498;2023-06-10T06:02:23;99873.53;;;18.02;45.06
73594;BME280;64760;53.404;23.498;2023-06-10T06:04:49;99875.72;;;18.16;44.69
73594;BME280;64760;53.404;23.498;2023-06-10T06:10:59;99879.91;;;17.96;45.66
73594;BME280;64760;53.404;23.498;2023-06-10T06:16:24;99878.69;;;17.75;45.51
73594;BME280;64760;53.404;23.498;2023-06-10T06:18:52;99878.47;;;17.65;46.09
73594;BME280;64760;53.404;23.498;2023-06-10T06:21:19;99878.34;;;17.71;45.88
73594;BME280;64760;53.404;23.498;2023-06-10T06:23:45;99880.88;;;17.90;45.81
73594;BME280;64760;53.404;23.498;2023-06-10T06:26:11;99884.19;;;17.80;45.80
73594;BME280;64760;53.404;23.498;2023-06-10T06:28:38;99884.22;;;17.68;46.61
73594;BME280;64760;53.404;23.498;2023-06-10T06:31:04;99879.84;;;17.56;46.38
73594;BME280;64760;53.404;23.498;2023-06-10T06:33:31;99880.22;;;17.71;47.08
73594;BME280;64760;53.404;23.498;2023-06-10T06:35:57;99887.63;;;17.87;46.23
73594;BME280;64760;53.404;23.498;2023-06-10T06:38:23;99881.94;;;17.89;46.56
73594;BME280;64760;53.404;23.498;2023-06-10T06:40:50;99883.63;;;17.78;46.68
73594;BME280;64760;53.404;23.498;2023-06-10T06:43:16;99888.06;;;17.84;46.97
73594;BME280;64760;53.404;23.498;2023-06-10T06:45:53;99890.97;;;18.06;46.15
73594;BME280;64760;53.404;23.498;2023-06-10T06:48:20;99894.03;;;18.38;45.87
73594;BME280;64760;53.404;23.498;2023-06-10T06:50:46;99888.16;;;18.29;45.79
73594;BME280;64760;53.404;23.498;2023-06-10T06:53:13;99902.56;;;18.29;45.85
73594;BME280;64760;53.404;23.498;2023-06-10T06:55:40;99889.91;;;18.35;45.54
73594;BME280;64760;53.404;23.498;2023-06-10T06:58:07;99884.97;;;18.60;45.61
73594;BME280;64760;53.404;23.498;2023-06-10T07:00:33;99881.69;;;18.58;45.35
73594;BME280;64760;53.404;23.498;2023-06-10T07:03:00;99889.66;;;18.65;45.29
73594;BME280;64760;53.404;23.498;2023-06-10T07:05:27;99884.06;;;18.71;45.31
73594;BME280;64760;53.404;23.498;2023-06-10T07:07:53;99890.00;;;18.85;45.29
73594;BME280;64760;53.404;23.498;2023-06-10T07:10:23;99890.97;;;18.96;45.40
73594;BME280;64760;53.404;23.498;2023-06-10T07:12:51;99894.44;;;19.08;44.78
73594;BME280;64760;53.404;23.498;2023-06-10T07:15:18;99891.47;;;18.93;44.75
73594;BME280;64760;53.404;23.498;2023-06-10T07:17:44;99890.16;;;19.12;45.48
73594;BME280;64760;53.404;23.498;2023-06-10T07:20:11;99893.78;;;19.34;44.56
73594;BME280;64760;53.404;23.498;2023-06-10T07:22:38;99897.63;;;19.38;44.34
73594;BME280;64760;53.404;23.498;2023-06-10T07:25:06;99898.19;;;19.57;44.07
73594;BME280;64760;53.404;23.498;2023-06-10T07:27:33;99900.59;;;19.53;44.11
73594;BME280;64760;53.404;23.498;2023-06-10T07:30:01;99900.88;;;19.95;44.14
73594;BME280;64760;53.404;23.498;2023-06-10T07:32:36;99903.53;;;19.90;43.07
73594;BME280;64760;53.404;23.498;2023-06-10T07:35:09;99900.50;;;20.08;42.99
73594;BME280;64760;53.404;23.498;2023-06-10T07:37:44;99901.00;;;20.05;42.71
73594;BME280;64760;53.404;23.498;2023-06-10T07:40:15;99900.50;;;20.08;43.11
73594;BME280;64760;53.404;23.498;2023-06-10T07:42:46;99906.59;;;20.42;42.23
73594;BME280;64760;53.404;23.498;2023-06-10T07:45:19;99911.84;;;20.49;42.52
73594;BME280;64760;53.404;23.498;2023-06-10T07:47:54;99917.50;;;20.69;41.84
73594;BME280;64760;53.404;23.498;2023-06-10T07:50:26;99909.00;;;20.39;42.07
73594;BME280;64760;53.404;23.498;2023-06-10T07:53:04;99915.41;;;20.28;42.58
73594;BME280;64760;53.404;23.498;2023-06-10T07:55:37;99912.06;;;20.21;42.72
73594;BME280;64760;53.404;23.498;2023-06-10T07:58:12;99909.66;;;20.24;42.35
73594;BME280;64760;53.404;23.498;2023-06-10T08:00:48;99917.09;;;20.29;42.74
73594;BME280;64760;53.404;23.498;2023-06-10T08:03:23;99932.69;;;20.16;42.76
73594;BME280;64760;53.404;23.498;2023-06-10T08:06:00;99928.34;;;19.94;43.02
73594;BME280;64760;53.404;23.498;2023-06-10T08:08:27;99936.38;;;20.05;43.31
73594;BME280;64760;53.404;23.498;2023-06-10T08:10:53;99936.38;;;20.05;43.08
73594;BME280;64760;53.404;23.498;2023-06-10T08:13:20;99929.97;;;20.16;43.36
73594;BME280;64760;53.404;23.498;2023-06-10T08:15:47;99942.16;;;20.31;42.67
73594;BME280;64760;53.404;23.498;2023-06-10T08:18:16;99953.91;;;19.93;43.30
73594;BME280;64760;53.404;23.498;2023-06-10T08:20:43;99950.34;;;19.92;43.09
73594;BME280;64760;53.404;23.498;2023-06-10T08:23:10;99951.81;;;19.78;43.24
73594;BME280;64760;53.404;23.498;2023-06-10T08:25:36;99949.63;;;19.58;43.92
73594;BME280;64760;53.404;23.498;2023-06-10T08:28:03;99944.09;;;19.70;44.11
73594;BME280;64760;53.404;23.498;2023-06-10T08:30:29;99946.94;;;19.80;44.07
73594;BME280;64760;53.404;23.498;2023-06-10T08:32:56;99944.31;;;19.68;44.00
73594;BME280;64760;53.404;23.498;2023-06-10T08:35:22;99955.78;;;19.71;44.12
73594;BME280;64760;53.404;23.498;2023-06-10T08:37:49;99942.94;;;19.88;43.23
73594;BME280;64760;53.404;23.498;2023-06-10T08:40:16;99953.41;;;20.17;43.68
73594;BME280;64760;53.404;23.498;2023-06-10T08:45:51;99942.69;;;20.81;41.37
73594;BME280;64760;53.404;23.498;2023-06-10T08:48:20;99955.31;;;20.92;41.62
73594;BME280;64760;53.404;23.498;2023-06-10T08:50:47;99941.81;;;21.07;41.24
73594;BME280;64760;53.404;23.498;2023-06-10T08:53:18;99950.09;;;21.13;40.77
73594;BME280;64760;53.404;23.498;2023-06-10T08:55:50;99948.19;;;21.13;41.09
73594;BME280;64760;53.404;23.498;2023-06-10T08:58:20;99964.09;;;20.99;41.42
73594;BME280;64760;53.404;23.498;2023-06-10T09:00:46;99945.75;;;21.17;40.45
73594;BME280;64760;53.404;23.498;2023-06-10T09:03:14;99950.88;;;21.45;40.57
73594;BME280;64760;53.404;23.498;2023-06-10T09:05:41;99961.84;;;21.55;40.44
73594;BME280;64760;53.404;23.498;2023-06-10T09:08:08;99959.78;;;21.72;40.02
73594;BME280;64760;53.404;23.498;2023-06-10T09:10:35;99963.78;;;22.01;39.20
73594;BME280;64760;53.404;23.498;2023-06-10T09:13:02;99963.44;;;22.45;38.94
73594;BME280;64760;53.404;23.498;2023-06-10T09:15:29;99959.09;;;22.64;38.21
73594;BME280;64760;53.404;23.498;2023-06-10T09:17:55;99957.97;;;22.45;38.57
73594;BME280;64760;53.404;23.498;2023-06-10T09:20:23;99959.59;;;22.41;38.77
73594;BME280;64760;53.404;23.498;2023-06-10T09:22:49;99962.91;;;22.53;38.92
73594;BME280;64760;53.404;23.498;2023-06-10T09:25:16;99962.25;;;22.26;38.89
73594;BME280;64760;53.404;23.498;2023-06-10T09:27:51;99954.31;;;22.19;39.19
73594;BME280;64760;53.404;23.498;2023-06-10T09:30:27;99959.50;;;22.26;38.55
73594;BME280;64760;53.404;23.498;2023-06-10T09:32:56;99960.19;;;22.53;38.25
73594;BME280;64760;53.404;23.498;2023-06-10T09:35:26;99954.00;;;23.23;37.24
73594;BME280;64760;53.404;23.498;2023-06-10T09:37:55;99964.06;;;23.73;36.45
73594;BME280;64760;53.404;23.498;2023-06-10T09:40:22;99957.81;;;23.32;36.90
73594;BME280;64760;53.404;23.498;2023-06-10T09:42:56;99953.72;;;23.15;37.24
73594;BME280;64760;53.404;23.498;2023-06-10T09:45:23;99958.28;;;22.64;38.03
73594;BME280;64760;53.404;23.498;2023-06-10T09:47:53;99951.88;;;22.23;39.16
73594;BME280;64760;53.404;23.498;2023-06-10T09:50:20;99954.41;;;21.87;40.11
73594;BME280;64760;53.404;23.498;2023-06-10T09:52:50;99950.22;;;21.75;39.83
73594;BME280;64760;53.404;23.498;2023-06-10T09:55:17;99955.78;;;21.90;39.86
73594;BME280;64760;53.404;23.498;2023-06-10T09:57:44;99949.44;;;22.31;39.26
73594;BME280;64760;53.404;23.498;2023-06-10T10:00:15;99951.53;;;22.91;38.08
73594;BME280;64760;53.404;23.498;2023-06-10T10:02:50;99942.22;;;23.28;37.87
73594;BME280;64760;53.404;23.498;2023-06-10T10:05:19;99945.78;;;23.18;36.94
73594;BME280;64760;53.404;23.498;2023-06-10T10:07:48;99936.75;;;23.23;36.74
73594;BME280;64760;53.404;23.498;2023-06-10T10:10:18;99939.22;;;23.24;36.92
73594;BME280;64760;53.404;23.498;2023-06-10T10:12:52;99932.41;;;23.17;37.60
73594;BME280;64760;53.404;23.498;2023-06-10T10:15:24;99935.13;;;22.97;37.11
73594;BME280;64760;53.404;23.498;2023-06-10T10:17:58;99930.47;;;23.22;37.38
73594;BME280;64760;53.404;23.498;2023-06-10T10:20:29;99939.75;;;23.62;36.65
73594;BME280;64760;53.404;23.498;2023-06-10T10:22:57;99936.44;;;23.75;36.22
73594;BME280;64760;53.404;23.498;2023-06-10T10:25:28;99932.75;;;24.05;36.04
73594;BME280;64760;53.404;23.498;2023-06-10T10:28:02;99935.81;;;23.93;35.52
73594;BME280;64760;53.404;23.498;2023-06-10T10:30:39;99939.94;;;23.96;35.78
73594;BME280;64760;53.404;23.498;2023-06-10T10:33:11;99945.72;;;24.53;34.19
73594;BME280;64760;53.404;23.498;2023-06-10T10:35:39;99938.66;;;24.37;34.24
73594;BME280;64760;53.404;23.498;2023-06-10T10:38:06;99938.16;;;24.79;33.94
73594;BME280;64760;53.404;23.498;2023-06-10T10:40:34;99949.34;;;25.27;33.43
73594;BME280;64760;53.404;23.498;2023-06-10T10:43:01;99949.41;;;24.72;34.24
73594;BME280;64760;53.404;23.498;2023-06-10T10:45:28;99951.66;;;24.65;33.96
73594;BME280;64760;53.404;23.498;2023-06-10T10:47:56;99953.53;;;25.14;33.34
73594;BME280;64760;53.404;23.498;2023-06-10T10:50:24;99946.69;;;25.45;32.46
73594;BME280;64760;53.404;23.498;2023-06-10T10:53:05;99961.06;;;25.32;32.70
73594;BME280;64760;53.404;23.498;2023-06-10T10:55:31;99962.44;;;25.35;32.45
73594;BME280;64760;53.404;23.498;2023-06-10T10:58:05;99950.47;;;25.54;32.83
73594;BME280;64760;53.404;23.498;2023-06-10T11:00:36;99959.50;;;25.84;32.01
73594;BME280;64760;53.404;23.498;2023-06-10T11:03:07;99948.16;;;25.66;32.27
73594;BME280;64760;53.404;23.498;2023-06-10T11:08:08;99946.00;;;25.63;33.07
73594;BME280;64760;53.404;23.498;2023-06-10T11:10:36;99951.59;;;25.77;32.93
73594;BME280;64760;53.404;23.498;2023-06-10T11:15:38;99950.75;;;25.53;31.92
73594;BME280;64760;53.404;23.498;2023-06-10T11:18:19;99956.13;;;25.34;32.98
73594;BME280;64760;53.404;23.498;2023-06-10T11:24:40;99946.94;;;24.27;34.50
73594;BME280;64760;53.404;23.498;2023-06-10T11:27:25;99947.28;;;24.05;35.11
73594;BME280;64760;53.404;23.498;2023-06-10T11:32:34;99940.91;;;24.25;35.06
73594;BME280;64760;53.404;23.498;2023-06-10T11:35:04;99938.81;;;24.02;35.12
73594;BME280;64760;53.404;23.498;2023-06-10T11:37:31;99932.38;;;24.37;34.77
73594;BME280;64760;53.404;23.498;2023-06-10T11:39:58;99935.44;;;24.74;34.94
73594;BME280;64760;53.404;23.498;2023-06-10T11:42:25;99942.09;;;25.07;33.91
73594;BME280;64760;53.404;23.498;2023-06-10T11:44:52;99934.81;;;25.21;32.97
73594;BME280;64760;53.404;23.498;2023-06-10T11:47:20;99933.88;;;25.02;33.07
73594;BME280;64760;53.404;23.498;2023-06-10T11:49:56;99922.06;;;24.67;33.49
73594;BME280;64760;53.404;23.498;2023-06-10T11:52:27;99931.41;;;24.61;34.07
73594;BME280;64760;53.404;23.498;2023-06-10T11:54:54;99937.81;;;24.91;33.54
73594;BME280;64760;53.404;23.498;2023-06-10T11:57:21;99920.81;;;24.89;32.85
73594;BME280;64760;53.404;23.498;2023-06-10T11:59:48;99919.84;;;24.64;33.09
73594;BME280;64760;53.404;23.498;2023-06-10T12:02:15;99923.56;;;24.89;33.45
73594;BME280;64760;53.404;23.498;2023-06-10T12:04:42;99920.44;;;24.61;32.98
73594;BME280;64760;53.404;23.498;2023-06-10T12:07:17;99921.03;;;24.53;33.29
73594;BME280;64760;53.404;23.498;2023-06-10T12:09:44;99923.66;;;24.73;33.04
73594;BME280;64760;53.404;23.498;2023-06-10T12:12:11;99927.69;;;24.81;33.16
73594;BME280;64760;53.404;23.498;2023-06-10T12:20:28;99928.53;;;24.87;32.46
73594;BME280;64760;53.404;23.498;2023-06-10T12:22:55;99921.69;;;25.47;31.97
73594;BME280;64760;53.404;23.498;2023-06-10T12:25:25;99918.88;;;25.81;31.16
73594;BME280;64760;53.404;23.498;2023-06-10T12:27:56;99928.91;;;25.38;30.80
73594;BME280;64760;53.404;23.498;2023-06-10T12:30:25;99938.69;;;24.86;32.17
73594;BME280;64760;53.404;23.498;2023-06-10T12:32:52;99936.19;;;24.90;32.23
73594;BME280;64760;53.404;23.498;2023-06-10T12:35:20;99918.53;;;25.35;31.62
73594;BME280;64760;53.404;23.498;2023-06-10T12:38:14;99929.38;;;25.45;30.98
73594;BME280;64760;53.404;23.498;2023-06-10T12:40:48;99916.91;;;25.62;30.87
73594;BME280;64760;53.404;23.498;2023-06-10T12:43:19;99920.16;;;25.36;31.44
73594;BME280;64760;53.404;23.498;2023-06-10T12:45:46;99940.28;;;25.26;31.72
73594;BME280;64760;53.404;23.498;2023-06-10T12:48:21;99923.94;;;25.11;31.39
73594;BME280;64760;53.404;23.498;2023-06-10T12:50:53;99912.41;;;25.14;31.23
73594;BME280;64760;53.404;23.498;2023-06-10T12:53:21;99927.34;;;25.60;31.60
73594;BME280;64760;53.404;23.498;2023-06-10T12:55:50;99926.25;;;26.51;29.83
73594;BME280;64760;53.404;23.498;2023-06-10T12:58:20;99919.72;;;26.85;29.10
73594;BME280;64760;53.404;23.498;2023-06-10T13:00:48;99922.16;;;27.05;29.09
73594;BME280;64760;53.404;23.498;2023-06-10T13:03:16;99936.81;;;27.00;28.70
73594;BME280;64760;53.404;23.498;2023-06-10T13:05:43;99931.59;;;26.61;28.28
73594;BME280;64760;53.404;23.498;2023-06-10T13:08:10;99928.50;;;26.87;28.35
73594;BME280;64760;53.404;23.498;2023-06-10T13:10:36;99922.41;;;27.22;28.01
73594;BME280;64760;53.404;23.498;2023-06-10T13:13:03;99917.81;;;27.64;27.82
73594;BME280;64760;53.404;23.498;2023-06-10T13:15:35;99934.78;;;27.38;27.73
73594;BME280;64760;53.404;23.498;2023-06-10T13:18:05;99936.13;;;26.10;29.20
73594;BME280;64760;53.404;23.498;2023-06-10T13:20:31;99929.94;;;25.99;29.29
73594;BME280;64760;53.404;23.498;2023-06-10T13:22:57;99921.59;;;26.04;28.99
73594;BME280;64760;53.404;23.498;2023-06-10T13:25:24;99917.53;;;26.02;29.58
73594;BME280;64760;53.404;23.498;2023-06-10T13:27:51;99919.09;;;26.08;30.26